Latest Weather Observations for South Johnstone

IDQ60801

Issued at 7:31 pm EST Sunday 30 August 2015 (issued every 30 minutes, with the page automatically refreshed every 10 minutes)

About weather observations | Map of weather stations | Latest weather observations for QLD | Other Formats
Station Details ID: 032037 Name: SOUTH JOHNSTONE EXP STN Lat: -17.61 Lon: 146.00 Height: 18.3 m
Data from the previous 72 hours. | See also: Recent months at South Johnstone
Date/Time
EST
Temp
°C
App
Temp
°C
Dew
Point
Rel
Hum
%
Delta-T
°C
Wind Press
QNH
hPa
Press
MSL
hPa
Rain
since 9 am
mm
Dir
 
Spd
km/h
Gust
km/h
Spd
kts
Gust
kts
30/07:30pm 22.5 26.2 20.0 86 1.6 CALM 0 0 0 0 1015.4 - 0.0
30/07:00pm 22.7 26.2 19.6 82 2.0 CALM 0 0 0 0 1015.0 - 0.0
30/06:30pm 23.2 26.3 19.6 80 2.3 ENE 2 7 1 4 1014.6 - 0.0
30/06:00pm 23.7 25.5 18.8 74 3.1 ENE 7 11 4 6 1014.3 1014.2 0.0
30/05:30pm 24.3 25.5 19.1 73 3.3 NE 11 15 6 8 1014.1 - 0.0
30/05:00pm 24.9 25.7 18.2 66 4.2 ENE 11 17 6 9 1013.9 - 0.0
30/04:30pm 25.3 25.6 17.8 63 4.7 NE 13 19 7 10 1013.8 - 0.0
30/04:00pm 25.6 25.1 17.8 62 4.9 NE 17 22 9 12 1013.6 - 0.0
30/03:30pm 26.8 27.2 17.2 55 6.0 E 11 17 6 9 1013.7 - 0.0
30/03:00pm 27.0 27.4 18.2 58 5.6 E 13 20 7 11 1013.9 1013.8 0.0
30/02:30pm 27.6 28.0 18.2 56 6.0 ESE 13 19 7 10 1014.2 - 0.0
30/02:00pm 27.7 28.3 18.5 57 5.9 ESE 13 24 7 13 1014.8 - 0.0
30/01:30pm 27.9 29.2 19.4 60 5.5 ESE 11 17 6 9 1015.2 - 0.0
30/01:00pm 28.0 29.7 19.4 59 5.6 ENE 9 17 5 9 1015.7 - 0.0
30/12:30pm 26.7 27.7 17.8 58 5.6 ESE 9 17 5 9 1016.2 - 0.0
30/12:00pm 27.0 28.5 16.7 53 6.4 E 4 11 2 6 1016.9 1016.8 0.0
30/11:30am 26.4 29.0 17.6 58 5.5 CALM 0 0 0 0 1017.5 - 0.0
30/11:00am 25.8 27.4 17.8 61 5.0 SW 6 9 3 5 1018.0 - 0.0
30/10:30am 26.3 29.2 19.0 64 4.7 W 2 9 1 5 1018.5 - 0.0
30/10:00am 25.1 26.5 17.7 63 4.6 SSE 7 9 4 5 1018.7 - 0.0
30/09:30am 24.8 27.6 19.7 73 3.3 SW 4 7 2 4 1018.7 - 0.0
30/09:00am 22.8 26.4 19.7 83 2.0 CALM 0 0 0 0 1018.6 1018.5 0.0
30/08:30am 21.6 24.9 19.1 86 1.6 CALM 0 0 0 0 1018.4 - 0.0
30/08:00am 20.2 23.1 18.3 89 1.2 CALM 0 0 0 0 1018.1 - 0.0
30/07:30am 17.6 20.0 16.9 96 0.4 CALM 0 4 0 2 1017.7 - 0.0
30/07:00am 16.9 19.1 16.4 97 0.3 CALM 0 0 0 0 1017.2 - 0.0
30/06:30am 17.2 19.6 16.9 98 0.2 CALM 0 0 0 0 1016.8 - 0.0
30/06:00am 16.9 19.1 16.4 97 0.3 CALM 0 0 0 0 1016.4 1016.3 0.0
30/05:30am 17.0 19.2 16.5 97 0.3 CALM 0 0 0 0 1016.1 - 0.0
30/05:00am 17.1 19.3 16.4 96 0.4 CALM 0 0 0 0 1015.8 - 0.0
30/04:30am 17.0 18.4 16.5 97 0.3 W 4 9 2 5 1015.7 - 0.0
30/04:00am 17.2 18.3 16.7 97 0.3 W 6 7 3 4 1015.6 - 0.0
30/03:30am 17.2 19.1 16.7 97 0.3 W 2 6 1 3 1015.8 - 0.0
30/03:00am 17.4 19.3 16.7 96 0.4 W 2 7 1 4 1015.9 1015.8 0.0
30/02:30am 17.5 19.1 16.8 96 0.4 WSW 4 9 2 5 1016.1 - 0.0
30/02:00am 17.7 20.2 17.2 97 0.3 CALM 0 6 0 3 1016.2 - 0.0
30/01:30am 17.7 19.3 17.0 96 0.4 W 4 7 2 4 1016.5 - 0.0
30/01:00am 17.7 19.0 17.2 97 0.3 WNW 6 7 3 4 1016.9 - 0.0
30/12:30am 17.8 18.9 17.1 96 0.4 W 7 13 4 7 1017.2 - 0.0
30/12:00am 17.9 19.2 17.2 96 0.4 W 6 7 3 4 1017.4 1017.3 0.0
 
Date/Time
EST
Temp
°C
App
Temp
°C
Dew
Point
Rel
Hum
%
Delta-T
°C
Wind Press
QNH
hPa
Press
MSL
hPa
Rain
since 9 am
mm
Dir
 
Spd
km/h
Gust
km/h
Spd
kts
Gust
kts
29/11:30pm 18.0 19.2 17.3 96 0.4 W 7 9 4 5 1017.5 - 0.0
29/11:00pm 18.3 19.6 17.5 95 0.5 W 7 11 4 6 1017.6 - 0.0
29/10:30pm 18.4 19.7 17.6 95 0.5 WNW 7 9 4 5 1017.7 - 0.0
29/10:00pm 18.8 20.3 17.7 93 0.7 WNW 6 7 3 4 1017.9 - 0.0
29/09:30pm 19.0 20.4 17.9 93 0.7 WNW 7 9 4 5 1017.8 - 0.0
29/09:00pm 19.5 21.4 18.5 94 0.6 W 6 7 3 4 1017.9 1017.8 0.0
29/08:30pm 19.7 21.5 18.4 92 0.8 W 6 9 3 5 1017.9 - 0.0
29/08:00pm 20.2 22.1 18.6 90 1.0 W 6 9 3 5 1017.6 - 0.0
29/07:30pm 20.8 23.2 18.7 88 1.3 SSW 4 11 2 6 1017.3 - 0.0
29/07:00pm 21.5 24.8 19.0 86 1.6 CALM 0 6 0 3 1017.0 - 0.0
29/06:30pm 21.8 23.5 18.1 79 2.3 SE 6 7 3 4 1016.8 - 0.0
29/06:00pm 23.0 24.4 17.7 72 3.3 SE 7 11 4 6 1016.5 1016.4 0.0
29/05:30pm 24.3 25.1 17.4 65 4.3 E 9 15 5 8 1016.3 - 0.0
29/05:00pm 25.1 25.8 17.0 60 5.0 ESE 9 13 5 7 1016.4 - 0.0
29/04:30pm 25.7 25.9 16.8 58 5.5 ESE 11 17 6 9 1016.3 - 0.0
29/04:00pm 26.2 26.5 17.0 57 5.7 ESE 11 17 6 9 1016.1 - 0.0
29/03:30pm 26.4 26.8 17.3 57 5.7 E 11 19 6 10 1016.2 - 0.0
29/03:00pm 26.6 26.8 16.8 55 6.1 ESE 11 19 6 10 1016.4 1016.3 0.0
29/02:30pm 26.5 26.2 16.4 53 6.2 ESE 13 22 7 12 1016.9 - 0.0
29/02:00pm 26.6 26.8 17.7 58 5.6 ESE 13 20 7 11 1017.2 - 0.0
29/01:30pm 27.1 27.5 17.2 54 6.2 E 11 17 6 9 1017.7 - 0.0
29/01:00pm 26.8 27.1 17.9 58 5.6 ESE 13 22 7 12 1018.2 - 0.0
29/12:30pm 26.3 27.5 18.2 61 5.1 ESE 9 17 5 9 1018.7 - 0.0
29/12:00pm 26.9 27.4 18.4 59 5.4 ESE 13 22 7 12 1019.0 1018.9 0.0
29/11:30am 26.3 26.6 17.9 60 5.3 ESE 13 20 7 11 1019.6 - 0.0
29/11:00am 26.0 27.6 19.1 65 4.4 E 9 17 5 9 1020.0 - 0.0
29/10:30am 24.9 26.6 19.3 71 3.6 S 9 13 5 7 1020.5 - 0.0
29/10:00am 24.9 27.1 19.1 70 3.7 ENE 6 13 3 7 1020.6 - 0.0
29/09:30am 24.2 27.7 19.5 75 3.0 CALM 0 9 0 5 1020.6 - 0.0
29/09:00am 22.9 26.8 20.4 86 1.6 CALM 0 0 0 0 1020.4 1020.3 0.0
29/08:30am 20.2 23.4 18.9 92 0.8 CALM 0 0 0 0 1020.1 - 0.0
29/08:00am 19.1 21.5 18.0 93 0.7 NNW 2 9 1 5 1019.9 - 0.0
29/07:30am 17.5 18.6 17.0 97 0.3 WSW 7 11 4 6 1019.6 - 0.0
29/07:00am 17.0 18.1 16.5 97 0.3 WNW 6 11 3 6 1019.0 - 0.0
29/06:30am 16.7 18.8 16.2 97 0.3 CALM 0 0 0 0 1018.7 - 0.0
29/06:00am 17.0 17.9 16.7 98 0.2 WNW 7 11 4 6 1018.5 1018.4 0.0
29/05:30am 17.5 19.6 17.2 98 0.2 W 2 7 1 4 1018.1 - 0.0
29/05:00am 17.2 18.8 16.9 98 0.2 W 4 9 2 5 1017.8 - 0.0
29/04:30am 17.5 19.6 17.2 98 0.2 W 2 7 1 4 1017.8 - 0.0
29/04:00am 17.5 18.6 17.0 97 0.3 WNW 7 13 4 7 1017.7 - 0.0
29/03:30am 17.8 19.6 17.3 97 0.3 WNW 4 7 2 4 1017.7 - 0.0
29/03:00am 18.1 20.7 17.6 97 0.3 CALM 0 0 0 0 1017.9 1017.8 0.0
29/02:30am 17.9 20.1 17.4 97 0.3 SSW 2 9 1 5 1018.1 - 0.0
29/02:00am 17.8 18.2 17.3 97 0.3 WSW 11 13 6 7 1018.2 - 0.0
29/01:30am 17.8 19.0 17.3 97 0.3 W 7 13 4 7 1018.4 - 0.0
29/01:00am 17.9 18.3 17.2 96 0.4 WSW 11 15 6 8 1018.7 - 0.0
29/12:30am 18.4 19.8 17.7 96 0.4 W 7 9 4 5 1019.0 - 0.0
29/12:00am 18.7 20.8 18.0 96 0.4 WNW 4 7 2 4 1019.1 1019.0 0.0
 
Date/Time
EST
Temp
°C
App
Temp
°C
Dew
Point
Rel
Hum
%
Delta-T
°C
Wind Press
QNH
hPa
Press
MSL
hPa
Rain
since 9 am
mm
Dir
 
Spd
km/h
Gust
km/h
Spd
kts
Gust
kts
28/11:30pm 18.8 21.6 18.0 95 0.5 CALM 0 6 0 3 1019.4 - 0.0
28/11:00pm 19.1 20.7 18.3 95 0.5 WNW 7 9 4 5 1019.7 - 0.0
28/10:30pm 19.4 22.0 18.4 94 0.6 WNW 2 9 1 5 1019.9 - 0.0
28/10:00pm 19.7 21.6 18.6 93 0.7 WNW 6 9 3 5 1019.8 - 0.0
28/09:30pm 20.0 21.4 18.6 92 0.9 WSW 9 13 5 7 1019.7 - 0.0
28/09:00pm 20.2 21.7 18.8 92 0.9 W 9 13 5 7 1019.5 1019.4 0.0
28/08:30pm 20.3 22.8 19.0 92 0.8 WSW 4 9 2 5 1019.4 - 0.0
28/08:00pm 20.8 24.2 19.4 92 0.9 CALM 0 0 0 0 1019.2 - 0.0
28/07:30pm 21.1 24.4 19.2 89 1.2 CALM 0 0 0 0 1019.1 - 0.0
28/07:00pm 21.5 23.5 18.8 84 1.7 SSE 6 7 3 4 1018.6 - 0.0
28/06:30pm 21.9 23.8 19.0 83 1.8 SE 7 11 4 6 1018.3 - 0.0
28/06:00pm 23.1 24.1 18.7 76 2.8 SE 11 17 6 9 1017.8 1017.7 0.0
28/05:30pm 24.0 24.9 18.4 71 3.5 SE 11 17 6 9 1017.6 - 0.0
28/05:00pm 24.5 25.1 18.5 69 3.8 SE 13 20 7 11 1017.1 - 0.0
28/04:30pm 25.3 25.3 18.0 64 4.6 SE 15 22 8 12 1016.7 - 0.0
28/04:00pm 25.7 26.0 17.9 62 4.9 SE 13 22 7 12 1016.6 - 0.0
28/03:30pm 25.0 24.8 17.6 63 4.6 SE 15 22 8 12 1016.4 - 0.0
28/03:00pm 26.4 26.7 17.1 56 5.8 SE 11 17 6 9 1016.4 1016.3 0.0
28/02:30pm 25.6 26.0 17.2 59 5.2 ESE 11 20 6 11 1016.6 - 0.0
28/02:00pm 26.9 27.0 17.5 56 5.9 ESE 13 24 7 13 1016.8 - 0.0
28/01:30pm 26.6 26.1 16.8 55 6.1 SE 15 26 8 14 1017.4 - 0.0
28/01:00pm 26.6 25.5 15.4 50 6.8 ESE 15 26 8 14 1017.9 - 0.0
28/12:30pm 26.7 26.3 17.1 55 6.0 ESE 15 20 8 11 1018.5 - 0.0
28/12:00pm 26.1 25.5 16.7 56 5.8 SSE 15 26 8 14 1018.9 1018.8 0.0
28/11:30am 26.6 26.8 17.7 58 5.6 SE 13 24 7 13 1019.3 - 0.0
28/11:00am 25.6 25.7 17.4 60 5.1 ESE 13 20 7 11 1019.7 - 0.0
28/10:30am 25.7 26.2 18.4 64 4.6 SSE 13 20 7 11 1019.9 - 0.0
28/10:00am 24.9 25.6 18.8 69 3.9 SE 13 20 7 11 1020.1 - 0.0
28/09:30am 24.6 26.5 18.9 70 3.6 S 7 11 4 6 1020.1 - 0.0
28/09:00am 23.7 27.6 20.3 81 2.2 CALM 0 7 0 4 1020.2 1020.1 0.0
28/08:30am 21.6 25.3 19.9 90 1.1 CALM 0 0 0 0 1019.9 - 0.0
28/08:00am 19.6 21.9 18.6 94 0.6 WNW 4 7 2 4 1019.7 - 0.0
28/07:30am 18.5 20.8 17.8 96 0.4 W 2 6 1 3 1019.5 - 0.0
28/07:00am 17.4 18.7 17.1 98 0.2 WNW 6 9 3 5 1019.1 - 0.0
28/06:30am 17.2 19.1 16.7 97 0.3 WNW 2 7 1 4 1019.0 - 0.0
28/06:00am 17.3 18.6 17.0 98 0.2 WNW 6 7 3 4 1018.6 1018.5 0.0
28/05:30am 17.4 18.6 16.9 97 0.3 WNW 6 9 3 5 1018.4 - 0.0
28/05:00am 17.2 19.1 16.7 97 0.3 WSW 2 7 1 4 1018.2 - 0.0
28/04:30am 17.2 18.3 16.7 97 0.3 W 6 9 3 5 1017.9 - 0.0
28/04:00am 17.3 19.2 16.8 97 0.3 WNW 2 7 1 4 1018.0 - 0.0
28/03:30am 17.6 19.3 17.1 97 0.3 W 4 9 2 5 1017.9 - 0.0
28/03:00am 17.9 20.1 17.4 97 0.3 WNW 2 7 1 4 1018.0 1017.9 0.0
28/02:30am 17.9 19.6 17.2 96 0.4 W 4 9 2 5 1018.2 - 0.0
28/02:00am 18.1 19.3 17.3 95 0.5 W 7 9 4 5 1018.4 - 0.0
28/01:30am 18.4 20.7 17.7 96 0.4 WNW 2 7 1 4 1018.7 - 0.0
28/01:00am 18.5 20.5 17.8 96 0.4 WNW 4 9 2 5 1018.9 - 0.0
28/12:30am 18.4 20.3 17.7 96 0.4 W 4 11 2 6 1019.2 - 0.0
28/12:00am 18.8 20.5 18.0 95 0.5 WNW 6 9 3 5 1019.3 1019.2 0.0
 
Date/Time
EST
Temp
°C
App
Temp
°C
Dew
Point
Rel
Hum
%
Delta-T
°C
Wind Press
QNH
hPa
Press
MSL
hPa
Rain
since 9 am
mm
Dir
 
Spd
km/h
Gust
km/h
Spd
kts
Gust
kts
27/11:30pm 18.8 20.9 18.1 96 0.4 WNW 4 9 2 5 1019.5 - 0.0
27/11:00pm 19.0 20.6 18.2 95 0.5 WSW 7 11 4 6 1019.7 - 0.0
27/10:30pm 19.3 20.9 18.3 94 0.6 W 7 11 4 6 1019.7 - 0.0
27/10:00pm 19.5 20.7 18.2 92 0.8 WSW 9 15 5 8 1019.9 - 0.0
27/09:30pm 19.8 21.1 18.5 92 0.8 WSW 9 13 5 7 1019.9 - 0.0
27/09:00pm 20.2 22.9 18.6 90 1.0 W 2 11 1 6 1019.8 1019.7 0.0
27/08:30pm 21.0 24.4 19.3 90 1.1 CALM 0 6 0 3 1019.6 - 0.0
27/08:00pm 21.2 23.1 18.6 85 1.6 SSE 6 7 3 4 1019.4 - 0.0

Other Formats:

Comma delimited format used in spreadsheet applications
http://www.bom.gov.au/fwo/IDQ60801/IDQ60801.95292.axf

JavaScript Object Notation format (JSON) in row-major order
http://www.bom.gov.au/fwo/IDQ60801/IDQ60801.95292.json